sensor_id;sensor_type;location;lat;lon;timestamp;P1;durP1;ratioP1;P2;durP2;ratioP2
10880;SDS011;5493;48.884;8.338;2024-03-23T00:52:50;5.60;;;3.20;;
10880;SDS011;5493;48.884;8.338;2024-03-23T00:55:16;3.23;;;2.93;;
10880;SDS011;5493;48.884;8.338;2024-03-23T00:57:43;5.43;;;3.00;;
10880;SDS011;5493;48.884;8.338;2024-03-23T01:00:09;3.97;;;3.13;;
10880;SDS011;5493;48.884;8.338;2024-03-23T01:02:36;4.20;;;2.87;;
10880;SDS011;5493;48.884;8.338;2024-03-23T01:05:02;2.93;;;2.60;;
10880;SDS011;5493;48.884;8.338;2024-03-23T01:07:28;3.63;;;2.87;;
10880;SDS011;5493;48.884;8.338;2024-03-23T01:09:55;5.03;;;2.53;;
10880;SDS011;5493;48.884;8.338;2024-03-23T01:12:22;3.57;;;2.57;;
10880;SDS011;5493;48.884;8.338;2024-03-23T01:14:47;3.27;;;2.27;;
10880;SDS011;5493;48.884;8.338;2024-03-23T01:17:14;3.80;;;2.30;;
10880;SDS011;5493;48.884;8.338;2024-03-23T01:19:39;3.37;;;2.40;;
10880;SDS011;5493;48.884;8.338;2024-03-23T01:22:06;2.93;;;2.33;;
10880;SDS011;5493;48.884;8.338;2024-03-23T01:24:32;3.80;;;2.23;;
10880;SDS011;5493;48.884;8.338;2024-03-23T01:27:00;4.03;;;2.10;;
10880;SDS011;5493;48.884;8.338;2024-03-23T01:29:25;3.67;;;2.23;;
10880;SDS011;5493;48.884;8.338;2024-03-23T01:31:52;3.07;;;2.13;;
10880;SDS011;5493;48.884;8.338;2024-03-23T01:34:17;2.87;;;2.20;;
10880;SDS011;5493;48.884;8.338;2024-03-23T01:36:45;2.37;;;2.17;;
10880;SDS011;5493;48.884;8.338;2024-03-23T01:39:11;3.27;;;2.13;;
10880;SDS011;5493;48.884;8.338;2024-03-23T01:41:39;2.67;;;2.27;;
10880;SDS011;5493;48.884;8.338;2024-03-23T01:44:08;2.83;;;2.17;;
10880;SDS011;5493;48.884;8.338;2024-03-23T01:46:36;3.17;;;2.27;;
10880;SDS011;5493;48.884;8.338;2024-03-23T01:49:02;3.63;;;2.23;;
10880;SDS011;5493;48.884;8.338;2024-03-23T01:51:29;4.03;;;2.27;;
10880;SDS011;5493;48.884;8.338;2024-03-23T01:53:55;5.33;;;2.17;;
10880;SDS011;5493;48.884;8.338;2024-03-23T01:56:22;3.60;;;1.97;;
10880;SDS011;5493;48.884;8.338;2024-03-23T01:58:48;2.33;;;1.83;;
10880;SDS011;5493;48.884;8.338;2024-03-23T02:01:16;1.57;;;1.43;;
10880;SDS011;5493;48.884;8.338;2024-03-23T02:03:41;3.57;;;2.20;;
10880;SDS011;5493;48.884;8.338;2024-03-23T02:06:08;4.13;;;2.00;;
10880;SDS011;5493;48.884;8.338;2024-03-23T02:08:34;1.90;;;1.43;;
10880;SDS011;5493;48.884;8.338;2024-03-23T02:11:00;2.37;;;2.10;;
10880;SDS011;5493;48.884;8.338;2024-03-23T02:13:26;2.70;;;1.90;;
10880;SDS011;5493;48.884;8.338;2024-03-23T02:15:53;3.40;;;2.00;;
10880;SDS011;5493;48.884;8.338;2024-03-23T02:18:20;2.97;;;1.87;;
10880;SDS011;5493;48.884;8.338;2024-03-23T02:20:46;3.53;;;1.87;;
10880;SDS011;5493;48.884;8.338;2024-03-23T02:23:16;2.83;;;2.07;;
10880;SDS011;5493;48.884;8.338;2024-03-23T02:25:44;5.57;;;1.73;;
10880;SDS011;5493;48.884;8.338;2024-03-23T02:28:09;2.40;;;1.90;;
10880;SDS011;5493;48.884;8.338;2024-03-23T02:30:36;2.57;;;1.60;;
10880;SDS011;5493;48.884;8.338;2024-03-23T02:33:02;3.30;;;1.73;;
10880;SDS011;5493;48.884;8.338;2024-03-23T02:35:29;2.53;;;1.83;;
10880;SDS011;5493;48.884;8.338;2024-03-23T02:37:55;1.80;;;1.43;;
10880;SDS011;5493;48.884;8.338;2024-03-23T02:40:23;2.20;;;1.80;;
10880;SDS011;5493;48.884;8.338;2024-03-23T02:42:49;4.67;;;2.17;;
10880;SDS011;5493;48.884;8.338;2024-03-23T02:45:16;2.53;;;2.00;;
10880;SDS011;5493;48.884;8.338;2024-03-23T02:47:41;2.40;;;1.87;;
10880;SDS011;5493;48.884;8.338;2024-03-23T02:50:08;3.60;;;1.63;;
10880;SDS011;5493;48.884;8.338;2024-03-23T02:52:34;2.97;;;1.80;;
10880;SDS011;5493;48.884;8.338;2024-03-23T02:55:01;1.87;;;1.47;;
10880;SDS011;5493;48.884;8.338;2024-03-23T02:57:29;2.07;;;1.80;;
10880;SDS011;5493;48.884;8.338;2024-03-23T02:59:55;4.43;;;1.90;;
10880;SDS011;5493;48.884;8.338;2024-03-23T03:02:21;3.03;;;2.00;;
10880;SDS011;5493;48.884;8.338;2024-03-23T03:04:48;1.87;;;1.60;;
10880;SDS011;5493;48.884;8.338;2024-03-23T03:07:13;3.17;;;2.03;;
10880;SDS011;5493;48.884;8.338;2024-03-23T03:09:40;3.00;;;1.97;;
10880;SDS011;5493;48.884;8.338;2024-03-23T03:12:06;2.30;;;1.87;;
10880;SDS011;5493;48.884;8.338;2024-03-23T03:14:34;2.97;;;2.10;;
10880;SDS011;5493;48.884;8.338;2024-03-23T03:16:59;3.80;;;2.07;;
10880;SDS011;5493;48.884;8.338;2024-03-23T03:19:26;3.67;;;2.23;;
10880;SDS011;5493;48.884;8.338;2024-03-23T03:21:52;2.60;;;1.97;;
10880;SDS011;5493;48.884;8.338;2024-03-23T03:24:18;4.87;;;2.20;;
10880;SDS011;5493;48.884;8.338;2024-03-23T03:26:44;2.77;;;1.80;;
10880;SDS011;5493;48.884;8.338;2024-03-23T03:29:11;3.73;;;2.40;;
10880;SDS011;5493;48.884;8.338;2024-03-23T03:31:38;5.27;;;2.10;;
10880;SDS011;5493;48.884;8.338;2024-03-23T03:34:05;2.97;;;1.97;;
10880;SDS011;5493;48.884;8.338;2024-03-23T03:36:30;2.13;;;1.93;;
10880;SDS011;5493;48.884;8.338;2024-03-23T03:38:57;3.23;;;2.37;;
10880;SDS011;5493;48.884;8.338;2024-03-23T03:41:22;4.47;;;2.87;;
10880;SDS011;5493;48.884;8.338;2024-03-23T03:43:49;4.20;;;2.60;;
10880;SDS011;5493;48.884;8.338;2024-03-23T03:46:14;5.90;;;2.90;;
10880;SDS011;5493;48.884;8.338;2024-03-23T03:48:42;5.07;;;2.70;;
10880;SDS011;5493;48.884;8.338;2024-03-23T03:51:10;4.43;;;3.00;;
10880;SDS011;5493;48.884;8.338;2024-03-23T03:53:36;4.70;;;3.20;;
10880;SDS011;5493;48.884;8.338;2024-03-23T03:56:02;9.90;;;4.10;;
10880;SDS011;5493;48.884;8.338;2024-03-23T03:58:29;7.20;;;4.97;;
10880;SDS011;5493;48.884;8.338;2024-03-23T04:00:54;7.37;;;5.03;;
10880;SDS011;5493;48.884;8.338;2024-03-23T04:03:21;15.13;;;6.10;;
10880;SDS011;5493;48.884;8.338;2024-03-23T04:05:51;9.80;;;6.03;;
10880;SDS011;5493;48.884;8.338;2024-03-23T04:08:17;9.07;;;6.07;;
10880;SDS011;5493;48.884;8.338;2024-03-23T04:10:43;10.37;;;5.80;;
10880;SDS011;5493;48.884;8.338;2024-03-23T04:13:09;7.57;;;4.73;;
10880;SDS011;5493;48.884;8.338;2024-03-23T04:15:35;9.53;;;6.03;;
10880;SDS011;5493;48.884;8.338;2024-03-23T04:18:02;10.37;;;6.30;;
10880;SDS011;5493;48.884;8.338;2024-03-23T04:20:27;12.57;;;6.63;;
10880;SDS011;5493;48.884;8.338;2024-03-23T04:22:55;13.97;;;6.17;;
10880;SDS011;5493;48.884;8.338;2024-03-23T04:25:21;11.27;;;6.77;;
10880;SDS011;5493;48.884;8.338;2024-03-23T04:27:47;11.07;;;6.73;;
10880;SDS011;5493;48.884;8.338;2024-03-23T04:30:13;7.70;;;5.27;;
10880;SDS011;5493;48.884;8.338;2024-03-23T04:32:40;9.23;;;5.53;;
10880;SDS011;5493;48.884;8.338;2024-03-23T04:35:07;12.23;;;6.53;;
10880;SDS011;5493;48.884;8.338;2024-03-23T04:37:34;8.53;;;4.70;;
10880;SDS011;5493;48.884;8.338;2024-03-23T04:40:03;6.97;;;4.73;;
10880;SDS011;5493;48.884;8.338;2024-03-23T04:42:30;9.87;;;5.60;;
10880;SDS011;5493;48.884;8.338;2024-03-23T04:44:57;8.87;;;5.93;;
10880;SDS011;5493;48.884;8.338;2024-03-23T04:47:23;8.80;;;5.40;;
10880;SDS011;5493;48.884;8.338;2024-03-23T04:49:50;8.63;;;5.30;;
10880;SDS011;5493;48.884;8.338;2024-03-23T04:52:17;8.10;;;4.67;;
10880;SDS011;5493;48.884;8.338;2024-03-23T04:54:43;7.03;;;4.03;;
10880;SDS011;5493;48.884;8.338;2024-03-23T04:57:12;10.70;;;5.07;;
10880;SDS011;5493;48.884;8.338;2024-03-23T04:59:38;6.77;;;4.27;;
10880;SDS011;5493;48.884;8.338;2024-03-23T05:02:04;6.87;;;4.67;;
10880;SDS011;5493;48.884;8.338;2024-03-23T05:04:31;7.40;;;4.67;;
10880;SDS011;5493;48.884;8.338;2024-03-23T05:07:01;6.10;;;3.60;;
10880;SDS011;5493;48.884;8.338;2024-03-23T05:09:31;3.27;;;2.30;;
10880;SDS011;5493;48.884;8.338;2024-03-23T05:11:58;4.30;;;2.60;;
10880;SDS011;5493;48.884;8.338;2024-03-23T05:14:26;6.23;;;3.10;;
10880;SDS011;5493;48.884;8.338;2024-03-23T05:16:53;3.13;;;2.27;;
10880;SDS011;5493;48.884;8.338;2024-03-23T05:19:18;2.27;;;1.70;;
10880;SDS011;5493;48.884;8.338;2024-03-23T05:21:45;2.70;;;1.33;;
10880;SDS011;5493;48.884;8.338;2024-03-23T05:24:11;1.23;;;0.93;;
10880;SDS011;5493;48.884;8.338;2024-03-23T05:26:38;0.50;;;0.40;;
10880;SDS011;5493;48.884;8.338;2024-03-23T05:29:03;0.77;;;0.73;;
10880;SDS011;5493;48.884;8.338;2024-03-23T05:31:33;0.33;;;0.30;;
10880;SDS011;5493;48.884;8.338;2024-03-23T05:33:58;1.20;;;0.50;;
10880;SDS011;5493;48.884;8.338;2024-03-23T05:36:25;0.40;;;0.40;;
10880;SDS011;5493;48.884;8.338;2024-03-23T05:38:50;0.93;;;0.80;;
10880;SDS011;5493;48.884;8.338;2024-03-23T05:41:17;0.43;;;0.27;;
10880;SDS011;5493;48.884;8.338;2024-03-23T05:43:43;1.07;;;0.70;;
10880;SDS011;5493;48.884;8.338;2024-03-23T05:46:09;0.50;;;0.40;;
10880;SDS011;5493;48.884;8.338;2024-03-23T05:48:36;0.20;;;0.20;;
10880;SDS011;5493;48.884;8.338;2024-03-23T05:51:03;0.43;;;0.30;;
10880;SDS011;5493;48.884;8.338;2024-03-23T05:53:29;0.57;;;0.40;;
10880;SDS011;5493;48.884;8.338;2024-03-23T05:56:00;0.20;;;0.20;;
10880;SDS011;5493;48.884;8.338;2024-03-23T05:58:28;0.60;;;0.60;;
10880;SDS011;5493;48.884;8.338;2024-03-23T06:00:56;1.13;;;0.80;;
10880;SDS011;5493;48.884;8.338;2024-03-23T06:03:23;0.30;;;0.30;;
10880;SDS011;5493;48.884;8.338;2024-03-23T06:05:51;0.37;;;0.20;;
10880;SDS011;5493;48.884;8.338;2024-03-23T06:08:18;0.43;;;0.30;;
10880;SDS011;5493;48.884;8.338;2024-03-23T06:10:44;0.50;;;0.40;;
10880;SDS011;5493;48.884;8.338;2024-03-23T06:13:10;0.30;;;0.30;;
10880;SDS011;5493;48.884;8.338;2024-03-23T06:15:36;0.40;;;0.40;;
10880;SDS011;5493;48.884;8.338;2024-03-23T06:18:03;0.43;;;0.30;;
10880;SDS011;5493;48.884;8.338;2024-03-23T06:20:30;0.47;;;0.47;;
10880;SDS011;5493;48.884;8.338;2024-03-23T06:22:57;0.73;;;0.67;;
10880;SDS011;5493;48.884;8.338;2024-03-23T06:25:24;0.40;;;0.40;;
10880;SDS011;5493;48.884;8.338;2024-03-23T06:27:49;0.30;;;0.30;;
10880;SDS011;5493;48.884;8.338;2024-03-23T06:30:16;0.60;;;0.30;;
10880;SDS011;5493;48.884;8.338;2024-03-23T06:32:41;0.20;;;0.20;;
10880;SDS011;5493;48.884;8.338;2024-03-23T06:35:08;1.57;;;0.57;;
10880;SDS011;5493;48.884;8.338;2024-03-23T06:37:35;0.30;;;0.30;;
10880;SDS011;5493;48.884;8.338;2024-03-23T06:40:03;0.63;;;0.30;;
10880;SDS011;5493;48.884;8.338;2024-03-23T06:42:33;0.43;;;0.30;;
10880;SDS011;5493;48.884;8.338;2024-03-23T06:45:00;0.30;;;0.30;;
10880;SDS011;5493;48.884;8.338;2024-03-23T06:47:25;0.40;;;0.23;;
10880;SDS011;5493;48.884;8.338;2024-03-23T06:49:52;0.47;;;0.30;;
10880;SDS011;5493;48.884;8.338;2024-03-23T06:52:18;0.17;;;0.17;;
10880;SDS011;5493;48.884;8.338;2024-03-23T06:54:44;0.23;;;0.23;;
10880;SDS011;5493;48.884;8.338;2024-03-23T06:57:11;0.20;;;0.20;;
10880;SDS011;5493;48.884;8.338;2024-03-23T06:59:38;0.30;;;0.30;;
10880;SDS011;5493;48.884;8.338;2024-03-23T07:02:03;0.03;;;0.03;;
10880;SDS011;5493;48.884;8.338;2024-03-23T07:04:30;0.30;;;0.30;;
10880;SDS011;5493;48.884;8.338;2024-03-23T07:06:56;0.20;;;0.20;;
10880;SDS011;5493;48.884;8.338;2024-03-23T07:09:22;0.20;;;0.20;;
10880;SDS011;5493;48.884;8.338;2024-03-23T07:11:51;0.20;;;0.20;;
10880;SDS011;5493;48.884;8.338;2024-03-23T07:14:20;0.30;;;0.30;;
10880;SDS011;5493;48.884;8.338;2024-03-23T07:16:46;0.67;;;0.20;;
10880;SDS011;5493;48.884;8.338;2024-03-23T07:19:14;0.40;;;0.23;;
10880;SDS011;5493;48.884;8.338;2024-03-23T07:21:41;0.50;;;0.47;;
10880;SDS011;5493;48.884;8.338;2024-03-23T07:24:08;0.30;;;0.30;;
10880;SDS011;5493;48.884;8.338;2024-03-23T07:26:34;1.00;;;0.60;;
10880;SDS011;5493;48.884;8.338;2024-03-23T07:29:01;1.57;;;0.57;;
10880;SDS011;5493;48.884;8.338;2024-03-23T07:31:28;0.63;;;0.50;;
10880;SDS011;5493;48.884;8.338;2024-03-23T07:33:54;0.50;;;0.50;;
10880;SDS011;5493;48.884;8.338;2024-03-23T07:36:20;0.37;;;0.33;;
10880;SDS011;5493;48.884;8.338;2024-03-23T07:38:47;0.30;;;0.27;;
10880;SDS011;5493;48.884;8.338;2024-03-23T07:41:14;1.47;;;0.80;;
10880;SDS011;5493;48.884;8.338;2024-03-23T07:43:42;1.53;;;0.83;;
10880;SDS011;5493;48.884;8.338;2024-03-23T07:46:11;2.00;;;0.63;;
10880;SDS011;5493;48.884;8.338;2024-03-23T07:48:39;1.27;;;0.40;;
10880;SDS011;5493;48.884;8.338;2024-03-23T07:51:05;1.03;;;0.83;;
10880;SDS011;5493;48.884;8.338;2024-03-23T07:53:34;1.43;;;0.70;;
10880;SDS011;5493;48.884;8.338;2024-03-23T07:56:06;0.80;;;0.60;;
10880;SDS011;5493;48.884;8.338;2024-03-23T07:58:33;0.73;;;0.57;;
10880;SDS011;5493;48.884;8.338;2024-03-23T08:01:03;2.13;;;0.70;;
10880;SDS011;5493;48.884;8.338;2024-03-23T08:03:33;1.13;;;0.50;;
10880;SDS011;5493;48.884;8.338;2024-03-23T08:06:07;1.43;;;0.50;;
10880;SDS011;5493;48.884;8.338;2024-03-23T08:08:34;2.67;;;0.80;;
10880;SDS011;5493;48.884;8.338;2024-03-23T08:11:00;0.90;;;0.73;;
10880;SDS011;5493;48.884;8.338;2024-03-23T08:13:27;2.90;;;0.90;;
10880;SDS011;5493;48.884;8.338;2024-03-23T08:15:55;1.87;;;1.17;;
10880;SDS011;5493;48.884;8.338;2024-03-23T08:18:22;3.87;;;1.23;;
10880;SDS011;5493;48.884;8.338;2024-03-23T08:20:54;3.80;;;1.50;;
10880;SDS011;5493;48.884;8.338;2024-03-23T08:23:23;2.37;;;1.60;;
10880;SDS011;5493;48.884;8.338;2024-03-23T08:25:49;2.57;;;1.63;;
10880;SDS011;5493;48.884;8.338;2024-03-23T08:28:15;3.90;;;2.07;;
10880;SDS011;5493;48.884;8.338;2024-03-23T08:30:41;3.83;;;1.97;;
10880;SDS011;5493;48.884;8.338;2024-03-23T08:33:07;2.00;;;1.70;;
10880;SDS011;5493;48.884;8.338;2024-03-23T08:35:33;5.17;;;1.67;;
10880;SDS011;5493;48.884;8.338;2024-03-23T08:38:00;4.00;;;2.13;;
10880;SDS011;5493;48.884;8.338;2024-03-23T08:40:26;6.73;;;2.87;;
10880;SDS011;5493;48.884;8.338;2024-03-23T08:42:53;7.13;;;2.70;;
10880;SDS011;5493;48.884;8.338;2024-03-23T08:45:18;2.60;;;1.60;;
10880;SDS011;5493;48.884;8.338;2024-03-23T08:47:45;4.23;;;2.20;;
10880;SDS011;5493;48.884;8.338;2024-03-23T08:50:11;6.23;;;2.93;;
10880;SDS011;5493;48.884;8.338;2024-03-23T08:52:37;7.67;;;2.17;;
10880;SDS011;5493;48.884;8.338;2024-03-23T08:55:03;4.13;;;1.90;;
10880;SDS011;5493;48.884;8.338;2024-03-23T08:57:31;4.07;;;1.40;;
10880;SDS011;5493;48.884;8.338;2024-03-23T08:59:57;5.77;;;2.30;;
10880;SDS011;5493;48.884;8.338;2024-03-23T09:02:24;3.27;;;1.87;;
10880;SDS011;5493;48.884;8.338;2024-03-23T09:04:49;3.37;;;1.43;;
10880;SDS011;5493;48.884;8.338;2024-03-23T09:07:16;6.03;;;2.00;;
10880;SDS011;5493;48.884;8.338;2024-03-23T09:09:41;2.73;;;1.47;;
10880;SDS011;5493;48.884;8.338;2024-03-23T09:12:08;6.50;;;2.00;;
10880;SDS011;5493;48.884;8.338;2024-03-23T09:14:35;3.20;;;1.50;;
10880;SDS011;5493;48.884;8.338;2024-03-23T09:17:04;3.27;;;1.90;;
10880;SDS011;5493;48.884;8.338;2024-03-23T09:19:30;2.23;;;1.60;;
10880;SDS011;5493;48.884;8.338;2024-03-23T09:21:57;2.87;;;1.60;;
10880;SDS011;5493;48.884;8.338;2024-03-23T09:24:23;6.07;;;2.33;;
10880;SDS011;5493;48.884;8.338;2024-03-23T09:26:49;2.07;;;0.80;;
10880;SDS011;5493;48.884;8.338;2024-03-23T09:29:17;4.67;;;2.20;;
10880;SDS011;5493;48.884;8.338;2024-03-23T09:31:44;8.97;;;2.07;;
10880;SDS011;5493;48.884;8.338;2024-03-23T09:34:11;6.80;;;3.27;;
10880;SDS011;5493;48.884;8.338;2024-03-23T09:36:37;8.30;;;3.37;;
10880;SDS011;5493;48.884;8.338;2024-03-23T09:39:03;6.33;;;2.53;;
10880;SDS011;5493;48.884;8.338;2024-03-23T09:41:30;5.93;;;2.67;;
10880;SDS011;5493;48.884;8.338;2024-03-23T09:43:57;7.83;;;3.03;;
10880;SDS011;5493;48.884;8.338;2024-03-23T09:46:23;8.00;;;2.40;;
10880;SDS011;5493;48.884;8.338;2024-03-23T09:48:51;6.63;;;2.50;;
10880;SDS011;5493;48.884;8.338;2024-03-23T09:51:17;5.13;;;2.10;;
10880;SDS011;5493;48.884;8.338;2024-03-23T09:53:44;4.80;;;2.37;;
10880;SDS011;5493;48.884;8.338;2024-03-23T09:56:09;3.93;;;2.23;;
10880;SDS011;5493;48.884;8.338;2024-03-23T09:58:36;6.93;;;2.03;;
10880;SDS011;5493;48.884;8.338;2024-03-23T10:01:01;4.07;;;1.70;;
10880;SDS011;5493;48.884;8.338;2024-03-23T10:03:29;3.40;;;2.10;;
10880;SDS011;5493;48.884;8.338;2024-03-23T10:06:03;5.73;;;2.03;;
10880;SDS011;5493;48.884;8.338;2024-03-23T10:08:30;3.33;;;1.80;;
10880;SDS011;5493;48.884;8.338;2024-03-23T10:10:56;3.90;;;1.97;;
10880;SDS011;5493;48.884;8.338;2024-03-23T10:13:26;8.30;;;2.13;;
10880;SDS011;5493;48.884;8.338;2024-03-23T10:15:54;8.53;;;3.60;;
10880;SDS011;5493;48.884;8.338;2024-03-23T10:18:23;1.70;;;1.50;;
10880;SDS011;5493;48.884;8.338;2024-03-23T10:20:50;4.60;;;2.47;;
10880;SDS011;5493;48.884;8.338;2024-03-23T10:23:20;10.27;;;1.53;;
10880;SDS011;5493;48.884;8.338;2024-03-23T10:25:46;3.60;;;1.63;;
10880;SDS011;5493;48.884;8.338;2024-03-23T10:28:12;2.27;;;1.37;;
10880;SDS011;5493;48.884;8.338;2024-03-23T10:30:38;1.40;;;1.00;;
10880;SDS011;5493;48.884;8.338;2024-03-23T10:33:08;3.63;;;1.60;;
10880;SDS011;5493;48.884;8.338;2024-03-23T10:35:34;2.93;;;1.57;;
10880;SDS011;5493;48.884;8.338;2024-03-23T10:38:00;3.47;;;1.70;;
10880;SDS011;5493;48.884;8.338;2024-03-23T10:40:29;3.90;;;1.70;;
10880;SDS011;5493;48.884;8.338;2024-03-23T10:42:55;1.90;;;1.53;;
10880;SDS011;5493;48.884;8.338;2024-03-23T10:45:23;3.90;;;2.07;;
10880;SDS011;5493;48.884;8.338;2024-03-23T10:47:52;3.30;;;1.70;;
10880;SDS011;5493;48.884;8.338;2024-03-23T10:50:18;2.93;;;1.57;;
10880;SDS011;5493;48.884;8.338;2024-03-23T10:52:45;3.17;;;1.40;;
10880;SDS011;5493;48.884;8.338;2024-03-23T10:55:12;2.00;;;1.53;;
10880;SDS011;5493;48.884;8.338;2024-03-23T10:57:44;2.57;;;1.20;;
10880;SDS011;5493;48.884;8.338;2024-03-23T11:00:14;1.40;;;1.30;;
10880;SDS011;5493;48.884;8.338;2024-03-23T11:02:41;3.70;;;0.70;;
10880;SDS011;5493;48.884;8.338;2024-03-23T11:07:55;6.40;;;1.93;;
10880;SDS011;5493;48.884;8.338;2024-03-23T11:10:25;5.93;;;2.10;;
10880;SDS011;5493;48.884;8.338;2024-03-23T11:12:55;4.27;;;1.33;;
10880;SDS011;5493;48.884;8.338;2024-03-23T11:15:21;3.77;;;1.93;;
10880;SDS011;5493;48.884;8.338;2024-03-23T11:20:34;4.93;;;1.80;;
10880;SDS011;5493;48.884;8.338;2024-03-23T11:23:02;4.83;;;2.00;;
10880;SDS011;5493;48.884;8.338;2024-03-23T11:25:28;2.43;;;1.50;;
10880;SDS011;5493;48.884;8.338;2024-03-23T11:27:56;5.33;;;1.73;;
10880;SDS011;5493;48.884;8.338;2024-03-23T11:30:23;1.77;;;1.10;;
10880;SDS011;5493;48.884;8.338;2024-03-23T11:32:51;8.27;;;1.60;;
10880;SDS011;5493;48.884;8.338;2024-03-23T11:35:25;4.30;;;1.80;;
10880;SDS011;5493;48.884;8.338;2024-03-23T11:38:05;6.47;;;1.80;;
10880;SDS011;5493;48.884;8.338;2024-03-23T11:40:32;5.90;;;1.73;;
10880;SDS011;5493;48.884;8.338;2024-03-23T11:43:01;4.90;;;1.50;;
10880;SDS011;5493;48.884;8.338;2024-03-23T11:45:28;4.20;;;1.63;;
10880;SDS011;5493;48.884;8.338;2024-03-23T11:48:04;3.90;;;1.60;;
10880;SDS011;5493;48.884;8.338;2024-03-23T11:50:31;4.40;;;1.90;;
10880;SDS011;5493;48.884;8.338;2024-03-23T11:53:07;2.97;;;1.60;;
10880;SDS011;5493;48.884;8.338;2024-03-23T11:55:41;2.23;;;1.40;;
10880;SDS011;5493;48.884;8.338;2024-03-23T11:58:10;6.47;;;2.03;;
10880;SDS011;5493;48.884;8.338;2024-03-23T12:00:35;4.03;;;1.80;;
10880;SDS011;5493;48.884;8.338;2024-03-23T12:03:03;6.70;;;1.53;;
10880;SDS011;5493;48.884;8.338;2024-03-23T12:05:29;3.93;;;1.67;;
10880;SDS011;5493;48.884;8.338;2024-03-23T12:10:44;4.27;;;2.20;;
10880;SDS011;5493;48.884;8.338;2024-03-23T12:13:15;2.80;;;1.60;;
10880;SDS011;5493;48.884;8.338;2024-03-23T12:15:42;4.83;;;2.10;;
10880;SDS011;5493;48.884;8.338;2024-03-23T12:18:09;4.53;;;1.63;;
10880;SDS011;5493;48.884;8.338;2024-03-23T12:20:35;9.57;;;1.87;;
10880;SDS011;5493;48.884;8.338;2024-03-23T12:23:06;6.33;;;1.70;;
10880;SDS011;5493;48.884;8.338;2024-03-23T12:25:33;7.17;;;2.40;;
10880;SDS011;5493;48.884;8.338;2024-03-23T12:28:00;4.90;;;2.20;;
10880;SDS011;5493;48.884;8.338;2024-03-23T12:30:26;5.40;;;1.70;;
10880;SDS011;5493;48.884;8.338;2024-03-23T12:32:53;2.87;;;1.47;;
10880;SDS011;5493;48.884;8.338;2024-03-23T12:35:19;6.97;;;2.40;;
10880;SDS011;5493;48.884;8.338;2024-03-23T12:37:45;6.20;;;2.03;;
10880;SDS011;5493;48.884;8.338;2024-03-23T12:40:11;2.87;;;1.37;;
10880;SDS011;5493;48.884;8.338;2024-03-23T12:42:37;8.47;;;1.63;;
10880;SDS011;5493;48.884;8.338;2024-03-23T12:45:03;3.23;;;1.53;;
10880;SDS011;5493;48.884;8.338;2024-03-23T12:47:31;4.90;;;1.60;;
10880;SDS011;5493;48.884;8.338;2024-03-23T12:49:59;5.60;;;1.80;;
10880;SDS011;5493;48.884;8.338;2024-03-23T12:52:26;5.47;;;2.00;;
10880;SDS011;5493;48.884;8.338;2024-03-23T12:54:53;3.47;;;1.30;;
10880;SDS011;5493;48.884;8.338;2024-03-23T12:57:22;1.53;;;1.10;;
10880;SDS011;5493;48.884;8.338;2024-03-23T12:59:49;2.97;;;0.80;;
10880;SDS011;5493;48.884;8.338;2024-03-23T13:02:16;3.00;;;1.00;;
10880;SDS011;5493;48.884;8.338;2024-03-23T13:04:44;2.27;;;0.93;;
10880;SDS011;5493;48.884;8.338;2024-03-23T13:07:10;1.13;;;0.60;;
10880;SDS011;5493;48.884;8.338;2024-03-23T13:09:36;2.73;;;0.90;;
10880;SDS011;5493;48.884;8.338;2024-03-23T13:12:02;2.10;;;0.70;;
10880;SDS011;5493;48.884;8.338;2024-03-23T13:14:28;1.70;;;0.53;;
10880;SDS011;5493;48.884;8.338;2024-03-23T13:16:55;2.10;;;0.83;;
10880;SDS011;5493;48.884;8.338;2024-03-23T13:19:20;1.57;;;0.77;;
10880;SDS011;5493;48.884;8.338;2024-03-23T13:21:53;2.70;;;0.53;;
10880;SDS011;5493;48.884;8.338;2024-03-23T13:24:21;2.03;;;0.60;;
10880;SDS011;5493;48.884;8.338;2024-03-23T13:26:48;3.07;;;1.10;;
10880;SDS011;5493;48.884;8.338;2024-03-23T13:29:14;2.37;;;0.77;;
10880;SDS011;5493;48.884;8.338;2024-03-23T13:31:41;3.83;;;1.27;;
10880;SDS011;5493;48.884;8.338;2024-03-23T13:34:06;0.90;;;0.63;;
10880;SDS011;5493;48.884;8.338;2024-03-23T13:36:33;1.57;;;0.60;;
10880;SDS011;5493;48.884;8.338;2024-03-23T13:39:00;0.77;;;0.30;;
10880;SDS011;5493;48.884;8.338;2024-03-23T13:41:27;1.47;;;0.43;;
10880;SDS011;5493;48.884;8.338;2024-03-23T13:43:53;0.83;;;0.40;;
10880;SDS011;5493;48.884;8.338;2024-03-23T13:46:19;1.30;;;0.77;;
10880;SDS011;5493;48.884;8.338;2024-03-23T13:48:45;2.30;;;0.40;;
10880;SDS011;5493;48.884;8.338;2024-03-23T13:51:11;0.80;;;0.50;;
10880;SDS011;5493;48.884;8.338;2024-03-23T13:53:38;0.60;;;0.40;;
10880;SDS011;5493;48.884;8.338;2024-03-23T13:56:06;0.83;;;0.40;;
10880;SDS011;5493;48.884;8.338;2024-03-23T13:58:31;0.50;;;0.30;;
10880;SDS011;5493;48.884;8.338;2024-03-23T14:00:58;1.43;;;0.40;;
10880;SDS011;5493;48.884;8.338;2024-03-23T14:03:24;0.83;;;0.30;;
10880;SDS011;5493;48.884;8.338;2024-03-23T14:05:50;0.47;;;0.23;;
10880;SDS011;5493;48.884;8.338;2024-03-23T14:08:17;2.20;;;0.70;;
10880;SDS011;5493;48.884;8.338;2024-03-23T14:10:47;1.53;;;0.73;;
10880;SDS011;5493;48.884;8.338;2024-03-23T14:13:14;1.07;;;0.63;;
10880;SDS011;5493;48.884;8.338;2024-03-23T14:15:41;0.77;;;0.50;;
10880;SDS011;5493;48.884;8.338;2024-03-23T14:18:07;1.00;;;0.50;;
10880;SDS011;5493;48.884;8.338;2024-03-23T14:20:34;1.13;;;0.70;;
10880;SDS011;5493;48.884;8.338;2024-03-23T14:22:59;0.77;;;0.27;;
10880;SDS011;5493;48.884;8.338;2024-03-23T14:25:26;1.13;;;0.23;;
10880;SDS011;5493;48.884;8.338;2024-03-23T14:27:54;2.53;;;0.60;;
10880;SDS011;5493;48.884;8.338;2024-03-23T14:30:22;1.43;;;0.63;;
10880;SDS011;5493;48.884;8.338;2024-03-23T14:32:48;0.43;;;0.40;;
10880;SDS011;5493;48.884;8.338;2024-03-23T14:35:14;1.60;;;0.80;;
10880;SDS011;5493;48.884;8.338;2024-03-23T14:37:40;0.93;;;0.40;;
10880;SDS011;5493;48.884;8.338;2024-03-23T14:40:07;0.50;;;0.37;;
10880;SDS011;5493;48.884;8.338;2024-03-23T14:42:33;2.17;;;0.70;;
10880;SDS011;5493;48.884;8.338;2024-03-23T14:45:00;1.87;;;0.93;;
10880;SDS011;5493;48.884;8.338;2024-03-23T14:47:27;1.87;;;0.90;;
10880;SDS011;5493;48.884;8.338;2024-03-23T14:49:53;1.53;;;0.60;;
10880;SDS011;5493;48.884;8.338;2024-03-23T14:52:19;1.10;;;0.60;;
10880;SDS011;5493;48.884;8.338;2024-03-23T14:54:46;1.00;;;0.50;;
10880;SDS011;5493;48.884;8.338;2024-03-23T14:57:11;2.63;;;0.70;;
10880;SDS011;5493;48.884;8.338;2024-03-23T14:59:38;1.87;;;0.80;;
10880;SDS011;5493;48.884;8.338;2024-03-23T15:02:05;1.43;;;1.00;;
10880;SDS011;5493;48.884;8.338;2024-03-23T15:04:34;1.50;;;0.80;;
10880;SDS011;5493;48.884;8.338;2024-03-23T15:07:01;0.83;;;0.70;;
10880;SDS011;5493;48.884;8.338;2024-03-23T15:09:27;0.80;;;0.50;;
10880;SDS011;5493;48.884;8.338;2024-03-23T15:11:54;0.80;;;0.50;;
10880;SDS011;5493;48.884;8.338;2024-03-23T15:14:20;0.97;;;0.43;;
10880;SDS011;5493;48.884;8.338;2024-03-23T15:16:46;1.20;;;0.70;;
10880;SDS011;5493;48.884;8.338;2024-03-23T15:19:13;6.10;;;2.17;;
10880;SDS011;5493;48.884;8.338;2024-03-23T15:21:43;2.20;;;1.27;;
10880;SDS011;5493;48.884;8.338;2024-03-23T15:24:09;2.53;;;1.03;;
10880;SDS011;5493;48.884;8.338;2024-03-23T15:26:36;0.97;;;0.63;;
10880;SDS011;5493;48.884;8.338;2024-03-23T15:29:02;2.27;;;1.33;;
10880;SDS011;5493;48.884;8.338;2024-03-23T15:31:37;1.90;;;0.97;;
10880;SDS011;5493;48.884;8.338;2024-03-23T15:34:03;3.83;;;0.80;;
10880;SDS011;5493;48.884;8.338;2024-03-23T15:36:34;1.37;;;0.90;;
10880;SDS011;5493;48.884;8.338;2024-03-23T15:39:01;1.00;;;0.80;;
10880;SDS011;5493;48.884;8.338;2024-03-23T15:41:28;2.47;;;1.10;;
10880;SDS011;5493;48.884;8.338;2024-03-23T15:43:53;1.23;;;0.73;;
10880;SDS011;5493;48.884;8.338;2024-03-23T15:46:20;3.57;;;1.10;;
10880;SDS011;5493;48.884;8.338;2024-03-23T15:48:47;4.27;;;1.40;;
10880;SDS011;5493;48.884;8.338;2024-03-23T15:51:17;1.70;;;1.00;;
10880;SDS011;5493;48.884;8.338;2024-03-23T15:53:43;3.20;;;1.40;;
10880;SDS011;5493;48.884;8.338;2024-03-23T15:56:13;5.63;;;1.60;;
10880;SDS011;5493;48.884;8.338;2024-03-23T15:58:39;1.47;;;1.00;;